Time;durP1;ratioP1;P1;durP2;ratioP2;P2;SDS_P1;SDS_P2;PMS_P1;PMS_P2;Temp;Humidity;BMP_temperature;BMP_pressure;BME280_temperature;BME280_humidity;BME280_pressure;Samples;Min_cycle;Max_cycle;Signal;HPM_P1;HPM_P2
2022/05/14 00:00:12;;;;;;;;;;;14.00;72.50;;;;;;4971835;28;19989;-78
2022/05/14 00:02:37;;;;;;;;;;;13.90;72.30;;;;;;4968732;28;19914;-78
2022/05/14 00:05:03;;;;;;;;;;;13.80;72.20;;;;;;4975660;28;19928;-75
2022/05/14 00:07:28;;;;;;;;;;;13.70;72.80;;;;;;4952113;28;19918;-76
2022/05/14 00:09:54;;;;;;;;;;;13.80;72.50;;;;;;4955649;28;20363;-76
2022/05/14 00:15:04;;;;;;;;;;;13.60;73.10;;;;;;4965886;28;20029;-75
2022/05/14 00:17:29;;;;;;;;;;;13.60;73.10;;;;;;4961976;28;20403;-76
2022/05/14 00:19:55;;;;;;;;;;;13.70;73.20;;;;;;4961166;28;20017;-76
2022/05/14 00:22:20;;;;;;;;;;;13.60;73.10;;;;;;4966085;28;20286;-76
2022/05/14 00:24:46;;;;;;;;;;;13.50;73.30;;;;;;4976586;28;19915;-76
2022/05/14 00:27:11;;;;;;;;;;;13.40;73.70;;;;;;4963295;28;19976;-76
2022/05/14 00:29:37;;;;;;;;;;;13.40;74.00;;;;;;4964399;28;19919;-76
2022/05/14 00:32:02;;;;;;;;;;;13.40;73.80;;;;;;4964246;28;19918;-76
2022/05/14 00:34:28;;;;;;;;;;;13.30;74.00;;;;;;4966066;28;19914;-76
2022/05/14 00:36:53;;;;;;;;;;;13.30;74.20;;;;;;4962797;28;20007;-76
2022/05/14 00:39:19;;;;;;;;;;;13.20;74.20;;;;;;4964725;28;19968;-76
2022/05/14 00:41:48;;;;;;;;;;;13.30;74.10;;;;;;4957721;28;20287;-76
2022/05/14 00:44:13;;;;;;;;;;;13.10;74.20;;;;;;4963670;28;19998;-75
2022/05/14 00:46:54;;;;;;;;;;;13.00;74.80;;;;;;4945163;28;20442;-75
2022/05/14 00:49:21;;;;;;;;;;;12.90;74.90;;;;;;4963321;28;20005;-76
2022/05/14 00:51:47;;;;;;;;;;;12.90;75.30;;;;;;4977988;28;19944;-76
2022/05/14 00:54:15;;;;;;;;;;;12.80;75.50;;;;;;4970268;28;20017;-76
2022/05/14 00:56:44;;;;;;;;;;;12.80;75.60;;;;;;4964267;28;20347;-76
2022/05/14 00:59:17;;;;;;;;;;;12.90;75.50;;;;;;4965974;28;19997;-75
2022/05/14 01:01:43;;;;;;;;;;;12.80;75.50;;;;;;4970228;28;20008;-75
2022/05/14 01:04:09;;;;;;;;;;;12.90;75.70;;;;;;4966796;28;20005;-76
2022/05/14 01:06:35;;;;;;;;;;;12.80;76.10;;;;;;4971829;28;20064;-76
2022/05/14 01:09:04;;;;;;;;;;;12.80;77.00;;;;;;4968378;28;19972;-76
2022/05/14 01:11:30;;;;;;;;;;;12.80;76.80;;;;;;4968233;28;19914;-76
2022/05/14 01:13:56;;;;;;;;;;;12.80;76.90;;;;;;4968004;28;20438;-76
2022/05/14 01:16:22;;;;;;;;;;;12.70;76.80;;;;;;4961958;28;20032;-75
2022/05/14 01:18:49;;;;;;;;;;;12.90;76.50;;;;;;4966287;28;19914;-76
2022/05/14 01:21:17;;;;;;;;;;;12.90;76.30;;;;;;4967638;28;19922;-76
2022/05/14 01:26:37;;;;;;;;;;;12.80;76.50;;;;;;4967941;28;19937;-75
2022/05/14 01:29:29;;;;;;;;;;;13.00;76.20;;;;;;4964192;28;20327;-76
2022/05/14 01:31:55;;;;;;;;;;;13.10;75.90;;;;;;4961133;28;20417;-76
2022/05/14 01:34:25;;;;;;;;;;;13.10;75.60;;;;;;4962887;28;19915;-76
2022/05/14 01:36:51;;;;;;;;;;;13.00;76.00;;;;;;4968381;28;20434;-76
2022/05/14 01:39:17;;;;;;;;;;;13.00;76.30;;;;;;4982612;28;20013;-78
2022/05/14 01:41:42;;;;;;;;;;;13.10;75.70;;;;;;4967591;28;19946;-77
2022/05/14 01:44:08;;;;;;;;;;;13.10;75.50;;;;;;4970064;28;19968;-77
2022/05/14 01:46:34;;;;;;;;;;;13.10;75.60;;;;;;4970643;28;20012;-77
2022/05/14 01:48:59;;;;;;;;;;;13.20;75.30;;;;;;4970549;28;19998;-77
2022/05/14 01:51:25;;;;;;;;;;;13.10;76.00;;;;;;4968529;28;19994;-77
2022/05/14 01:53:51;;;;;;;;;;;13.10;75.80;;;;;;4966969;28;20056;-77
2022/05/14 01:56:17;;;;;;;;;;;13.20;75.40;;;;;;4968906;28;20306;-77
2022/05/14 01:58:43;;;;;;;;;;;13.10;76.00;;;;;;4965812;28;19925;-77
2022/05/14 02:01:08;;;;;;;;;;;13.10;75.90;;;;;;4969031;28;20334;-76
2022/05/14 02:03:34;;;;;;;;;;;13.00;76.10;;;;;;4969195;28;19960;-77
2022/05/14 02:06:00;;;;;;;;;;;13.00;76.20;;;;;;4967707;28;19925;-76
2022/05/14 02:08:28;;;;;;;;;;;12.90;76.30;;;;;;4975359;28;20016;-77
2022/05/14 02:10:54;;;;;;;;;;;12.90;75.90;;;;;;4960847;28;20294;-77
2022/05/14 02:13:19;;;;;;;;;;;12.80;76.20;;;;;;4962725;28;19929;-77
2022/05/14 02:15:45;;;;;;;;;;;12.80;76.60;;;;;;4965223;28;20297;-77
2022/05/14 02:18:10;;;;;;;;;;;12.70;76.70;;;;;;4966007;28;19914;-76
2022/05/14 02:20:36;;;;;;;;;;;12.80;76.60;;;;;;4968214;28;19965;-76
2022/05/14 02:23:02;;;;;;;;;;;12.80;76.90;;;;;;4965180;28;19941;-76
2022/05/14 02:25:27;;;;;;;;;;;12.70;76.80;;;;;;4971928;28;19922;-77
2022/05/14 02:27:53;;;;;;;;;;;12.60;77.00;;;;;;4967304;28;20363;-76
2022/05/14 02:30:18;;;;;;;;;;;12.60;76.90;;;;;;4964171;28;19918;-76
2022/05/14 02:32:43;;;;;;;;;;;12.60;77.50;;;;;;4968004;28;19914;-76
2022/05/14 02:35:09;;;;;;;;;;;12.50;77.60;;;;;;4967265;28;19973;-76
2022/05/14 02:37:35;;;;;;;;;;;12.50;77.80;;;;;;4964221;28;19922;-76
2022/05/14 02:40:00;;;;;;;;;;;12.60;78.00;;;;;;4966050;28;19918;-76
2022/05/14 02:42:26;;;;;;;;;;;12.60;77.10;;;;;;4970990;28;19924;-76
2022/05/14 02:44:51;;;;;;;;;;;12.70;77.10;;;;;;4965245;28;19956;-77
2022/05/14 02:47:17;;;;;;;;;;;12.80;76.80;;;;;;4969621;28;19922;-76
2022/05/14 02:49:42;;;;;;;;;;;12.80;76.70;;;;;;4960324;28;20252;-77
2022/05/14 02:52:08;;;;;;;;;;;12.80;76.70;;;;;;4970188;28;19911;-77
2022/05/14 02:54:34;;;;;;;;;;;12.80;76.70;;;;;;4967738;28;19914;-77
2022/05/14 02:57:00;;;;;;;;;;;12.70;77.30;;;;;;4968762;28;19982;-77
2022/05/14 02:59:26;;;;;;;;;;;12.70;77.30;;;;;;4964089;28;19930;-76
2022/05/14 03:01:52;;;;;;;;;;;12.60;77.50;;;;;;4964325;28;20005;-76
2022/05/14 03:04:18;;;;;;;;;;;12.60;77.40;;;;;;4968293;28;19992;-76
2022/05/14 03:06:44;;;;;;;;;;;12.50;77.50;;;;;;4969050;28;19980;-76
2022/05/14 03:09:10;;;;;;;;;;;12.60;77.40;;;;;;4961191;28;20406;-76
2022/05/14 03:11:36;;;;;;;;;;;12.60;77.00;;;;;;4968224;28;20355;-77
2022/05/14 03:14:01;;;;;;;;;;;12.60;77.70;;;;;;4961300;28;19930;-77
2022/05/14 03:16:28;;;;;;;;;;;12.50;78.10;;;;;;4968903;28;19978;-77
2022/05/14 03:18:54;;;;;;;;;;;12.50;78.30;;;;;;4963827;28;19922;-77
2022/05/14 03:21:20;;;;;;;;;;;12.40;78.40;;;;;;4962210;28;19914;-77
2022/05/14 03:23:45;;;;;;;;;;;12.40;78.20;;;;;;4972807;28;20329;-76
2022/05/14 03:26:10;;;;;;;;;;;12.50;78.20;;;;;;4960401;28;19918;-77
2022/05/14 03:28:36;;;;;;;;;;;12.40;78.10;;;;;;4964403;28;19914;-76
2022/05/14 03:31:02;;;;;;;;;;;12.50;77.80;;;;;;4966811;28;19926;-76
2022/05/14 03:33:27;;;;;;;;;;;12.50;77.40;;;;;;4969726;28;19972;-77
2022/05/14 03:35:53;;;;;;;;;;;12.50;77.60;;;;;;4963186;28;19975;-77
2022/05/14 03:38:18;;;;;;;;;;;12.50;77.60;;;;;;4960640;28;20350;-76
2022/05/14 03:40:44;;;;;;;;;;;12.40;77.70;;;;;;4948186;28;19929;-76
2022/05/14 03:43:09;;;;;;;;;;;12.40;78.00;;;;;;4976357;28;19968;-77
2022/05/14 03:45:35;;;;;;;;;;;12.40;77.80;;;;;;4967339;28;19918;-77
2022/05/14 03:48:00;;;;;;;;;;;12.50;77.60;;;;;;4966900;28;19914;-76
2022/05/14 03:50:26;;;;;;;;;;;12.50;77.20;;;;;;4950797;28;19965;-77
2022/05/14 03:52:51;;;;;;;;;;;12.50;77.30;;;;;;4964846;28;20366;-77
2022/05/14 03:55:17;;;;;;;;;;;12.50;76.70;;;;;;4968659;28;19929;-77
2022/05/14 03:57:42;;;;;;;;;;;12.50;76.60;;;;;;4974078;28;20064;-77
2022/05/14 04:00:08;;;;;;;;;;;12.40;76.50;;;;;;4961625;28;19915;-77
2022/05/14 04:02:34;;;;;;;;;;;12.50;76.30;;;;;;4967565;28;19931;-77
2022/05/14 04:04:59;;;;;;;;;;;12.50;76.30;;;;;;4967579;28;19918;-76
2022/05/14 04:07:25;;;;;;;;;;;12.40;76.60;;;;;;4966792;28;19942;-76
2022/05/14 04:09:51;;;;;;;;;;;12.40;76.90;;;;;;4967334;28;19953;-77
2022/05/14 04:12:17;;;;;;;;;;;12.50;76.30;;;;;;4966012;28;20028;-77
2022/05/14 04:14:42;;;;;;;;;;;12.50;76.10;;;;;;4975009;28;20506;-76
2022/05/14 04:17:08;;;;;;;;;;;12.50;76.00;;;;;;4969129;28;19925;-77
2022/05/14 04:19:34;;;;;;;;;;;12.50;76.00;;;;;;4962209;28;19925;-77
2022/05/14 04:21:59;;;;;;;;;;;12.60;75.60;;;;;;4967874;28;19918;-77
2022/05/14 04:24:25;;;;;;;;;;;12.50;75.40;;;;;;4966268;28;19938;-77
2022/05/14 04:26:50;;;;;;;;;;;12.60;75.30;;;;;;4965853;28;19918;-76
2022/05/14 04:29:15;;;;;;;;;;;12.70;74.20;;;;;;4964346;28;19926;-76
2022/05/14 04:31:41;;;;;;;;;;;12.60;74.20;;;;;;4967264;28;19921;-77
2022/05/14 04:34:07;;;;;;;;;;;12.60;74.20;;;;;;4967031;28;20320;-76
2022/05/14 04:36:32;;;;;;;;;;;12.60;74.10;;;;;;4966663;28;19914;-77
2022/05/14 04:38:58;;;;;;;;;;;12.60;74.30;;;;;;4961432;28;20446;-76
2022/05/14 04:41:25;;;;;;;;;;;12.60;74.40;;;;;;4945338;28;19942;-77
2022/05/14 04:43:51;;;;;;;;;;;12.60;74.20;;;;;;4964862;28;20391;-77
2022/05/14 04:46:17;;;;;;;;;;;12.60;74.20;;;;;;4966645;28;19941;-76
2022/05/14 04:48:42;;;;;;;;;;;12.80;73.70;;;;;;4964871;28;20089;-76
2022/05/14 04:51:07;;;;;;;;;;;12.70;73.60;;;;;;4967066;28;19918;-77
2022/05/14 04:53:33;;;;;;;;;;;12.70;74.10;;;;;;4960980;28;19923;-77
2022/05/14 04:55:59;;;;;;;;;;;12.70;73.90;;;;;;4968768;28;19914;-77
2022/05/14 04:58:24;;;;;;;;;;;12.70;73.80;;;;;;4961201;28;19930;-77
2022/05/14 05:00:50;;;;;;;;;;;12.90;73.30;;;;;;4954399;28;20012;-77
2022/05/14 05:03:19;;;;;;;;;;;12.80;73.40;;;;;;4964498;28;19933;-76
2022/05/14 05:05:54;;;;;;;;;;;13.00;72.20;;;;;;4973820;28;19946;-77
2022/05/14 05:08:21;;;;;;;;;;;12.90;72.10;;;;;;4978134;28;19922;-77
2022/05/14 05:10:47;;;;;;;;;;;13.00;72.20;;;;;;4967584;28;19945;-77
2022/05/14 05:13:17;;;;;;;;;;;13.10;72.10;;;;;;4946938;28;19921;-76
2022/05/14 05:15:42;;;;;;;;;;;13.10;71.50;;;;;;4966912;28;19957;-76
2022/05/14 05:18:08;;;;;;;;;;;13.30;71.00;;;;;;4960250;28;19945;-76
2022/05/14 05:20:35;;;;;;;;;;;13.40;70.50;;;;;;4964185;28;21334;-76
2022/05/14 05:23:01;;;;;;;;;;;13.60;70.00;;;;;;4961259;28;20356;-77
2022/05/14 05:25:27;;;;;;;;;;;13.60;69.70;;;;;;4945385;28;19968;-77
2022/05/14 05:27:52;;;;;;;;;;;13.80;69.00;;;;;;4964626;28;19945;-77
2022/05/14 05:30:18;;;;;;;;;;;14.00;68.40;;;;;;4963347;28;20338;-77
2022/05/14 05:32:43;;;;;;;;;;;14.10;67.10;;;;;;4954809;28;19926;-77
2022/05/14 05:35:09;;;;;;;;;;;14.10;66.70;;;;;;4976623;28;19914;-77
2022/05/14 05:37:35;;;;;;;;;;;14.10;66.90;;;;;;4967794;28;20306;-77
2022/05/14 05:40:00;;;;;;;;;;;14.40;66.50;;;;;;4956259;28;19914;-77
2022/05/14 05:42:26;;;;;;;;;;;14.50;66.20;;;;;;4967925;28;20295;-77
2022/05/14 05:44:51;;;;;;;;;;;14.60;65.70;;;;;;4970640;28;19918;-77
2022/05/14 05:47:17;;;;;;;;;;;14.60;65.10;;;;;;4977103;28;20015;-77
2022/05/14 05:49:45;;;;;;;;;;;14.60;64.80;;;;;;4945995;28;19922;-77
2022/05/14 05:52:11;;;;;;;;;;;14.60;65.10;;;;;;4969044;28;19922;-77
2022/05/14 05:57:28;;;;;;;;;;;14.70;64.40;;;;;;4969905;28;19921;-77
2022/05/14 05:59:54;;;;;;;;;;;14.70;64.40;;;;;;4963008;28;19929;-78
2022/05/14 06:02:19;;;;;;;;;;;14.50;64.90;;;;;;4969487;28;19914;-77
2022/05/14 06:04:45;;;;;;;;;;;14.50;64.90;;;;;;4978766;28;19994;-77
2022/05/14 06:07:10;;;;;;;;;;;14.40;65.90;;;;;;4967273;28;19915;-77
2022/05/14 06:09:36;;;;;;;;;;;14.50;65.40;;;;;;4973815;28;20012;-77
2022/05/14 06:12:02;;;;;;;;;;;14.50;64.80;;;;;;4970381;28;19918;-76
2022/05/14 06:14:27;;;;;;;;;;;14.50;65.00;;;;;;4970326;28;19914;-77
2022/05/14 06:16:53;;;;;;;;;;;14.50;65.40;;;;;;4969114;28;20013;-78
2022/05/14 06:19:18;;;;;;;;;;;14.60;64.80;;;;;;4974516;28;20350;-78
2022/05/14 06:21:44;;;;;;;;;;;14.70;64.80;;;;;;4970378;28;19921;-78
2022/05/14 06:24:10;;;;;;;;;;;14.80;64.70;;;;;;4967392;28;19965;-77
2022/05/14 06:26:37;;;;;;;;;;;14.80;64.90;;;;;;4969908;28;19940;-77
2022/05/14 06:29:03;;;;;;;;;;;14.80;64.90;;;;;;4966033;28;19922;-77
2022/05/14 06:31:29;;;;;;;;;;;14.90;64.50;;;;;;4964774;28;19914;-78
2022/05/14 06:33:54;;;;;;;;;;;15.00;64.10;;;;;;4968286;28;20390;-77
2022/05/14 06:36:20;;;;;;;;;;;15.00;64.10;;;;;;4965368;28;20018;-77
2022/05/14 06:38:45;;;;;;;;;;;15.00;64.10;;;;;;4968214;28;19925;-77
2022/05/14 06:41:12;;;;;;;;;;;15.00;64.20;;;;;;4978743;28;20382;-77
2022/05/14 06:43:38;;;;;;;;;;;15.00;64.40;;;;;;4969316;28;20323;-77
2022/05/14 06:46:04;;;;;;;;;;;14.80;64.80;;;;;;4958191;28;19918;-76
2022/05/14 06:48:29;;;;;;;;;;;14.90;65.20;;;;;;4964309;28;19914;-76
2022/05/14 06:50:56;;;;;;;;;;;15.00;64.90;;;;;;4960468;28;19926;-76
2022/05/14 06:53:22;;;;;;;;;;;14.90;65.10;;;;;;4967235;28;19914;-75
2022/05/14 06:55:53;;;;;;;;;;;14.90;65.50;;;;;;4970990;28;19974;-77
2022/05/14 06:58:20;;;;;;;;;;;15.00;65.20;;;;;;4977137;28;19915;-77
2022/05/14 07:00:46;;;;;;;;;;;15.10;65.10;;;;;;4986516;28;20370;-79
2022/05/14 07:08:41;;;;;;;;;;;15.20;64.60;;;;;;4972762;28;19969;-77
2022/05/14 07:11:07;;;;;;;;;;;15.20;64.60;;;;;;4971396;28;19922;-78
2022/05/14 07:13:33;;;;;;;;;;;15.30;65.00;;;;;;4966675;28;19920;-77
2022/05/14 07:16:00;;;;;;;;;;;15.40;64.90;;;;;;4972819;28;20112;-77
2022/05/14 07:18:25;;;;;;;;;;;15.50;65.00;;;;;;4978246;28;19957;-78
2022/05/14 07:20:51;;;;;;;;;;;15.50;64.90;;;;;;4969402;28;19918;-78
2022/05/14 07:23:16;;;;;;;;;;;15.60;64.60;;;;;;4958156;28;19921;-77
2022/05/14 07:25:42;;;;;;;;;;;15.60;64.50;;;;;;4977745;28;20366;-78
2022/05/14 07:28:08;;;;;;;;;;;15.60;64.90;;;;;;4965215;28;20042;-77
2022/05/14 07:30:34;;;;;;;;;;;15.70;65.00;;;;;;4962442;28;19958;-77
2022/05/14 07:32:59;;;;;;;;;;;15.80;64.30;;;;;;4963713;28;20060;-78
2022/05/14 07:35:25;;;;;;;;;;;15.70;64.80;;;;;;4973001;28;19929;-77
2022/05/14 07:37:53;;;;;;;;;;;15.80;64.80;;;;;;4976808;28;19914;-78
2022/05/14 07:40:24;;;;;;;;;;;15.80;64.80;;;;;;4980994;28;19922;-78
2022/05/14 07:42:55;;;;;;;;;;;15.80;64.70;;;;;;4972594;28;19918;-78
2022/05/14 07:45:27;;;;;;;;;;;16.00;64.60;;;;;;4975742;28;19914;-77
2022/05/14 07:47:55;;;;;;;;;;;16.00;65.00;;;;;;4979538;28;19914;-78
2022/05/14 07:50:21;;;;;;;;;;;16.10;64.50;;;;;;4969889;28;19925;-78
2022/05/14 07:52:46;;;;;;;;;;;16.10;64.40;;;;;;4971955;28;19917;-79
2022/05/14 07:55:12;;;;;;;;;;;16.40;64.20;;;;;;4954389;28;19929;-80
2022/05/14 07:57:37;;;;;;;;;;;16.50;64.20;;;;;;4972820;28;20009;-77
2022/05/14 08:00:04;;;;;;;;;;;16.60;63.70;;;;;;4963936;28;19918;-77
2022/05/14 08:02:31;;;;;;;;;;;16.60;63.80;;;;;;4961466;28;20000;-78
2022/05/14 08:04:57;;;;;;;;;;;16.50;63.50;;;;;;4972209;28;19918;-77
2022/05/14 08:07:23;;;;;;;;;;;16.60;63.70;;;;;;4967080;28;20052;-77
2022/05/14 08:09:48;;;;;;;;;;;16.60;63.60;;;;;;4967838;28;19914;-77
2022/05/14 08:12:14;;;;;;;;;;;16.60;64.30;;;;;;4962629;28;19929;-78
2022/05/14 08:14:39;;;;;;;;;;;16.70;63.60;;;;;;4963453;28;19946;-79
2022/05/14 08:17:09;;;;;;;;;;;16.70;63.60;;;;;;4962784;28;19918;-78
2022/05/14 08:19:34;;;;;;;;;;;16.80;63.60;;;;;;4963610;28;19973;-77
2022/05/14 08:24:44;;;;;;;;;;;16.80;63.80;;;;;;4958856;28;20572;-78
2022/05/14 08:27:11;;;;;;;;;;;16.80;64.00;;;;;;4967763;28;19961;-78
2022/05/14 08:29:37;;;;;;;;;;;16.80;64.30;;;;;;4958199;28;20004;-78
2022/05/14 08:32:03;;;;;;;;;;;17.00;63.50;;;;;;4969544;28;19953;-78
2022/05/14 08:34:29;;;;;;;;;;;17.00;62.80;;;;;;4967742;28;19920;-78
2022/05/14 08:36:55;;;;;;;;;;;16.90;64.10;;;;;;4964220;28;20008;-77
2022/05/14 08:39:20;;;;;;;;;;;17.00;64.50;;;;;;4965380;28;19914;-77
2022/05/14 08:41:47;;;;;;;;;;;17.10;63.50;;;;;;4965493;28;19918;-77
2022/05/14 08:44:18;;;;;;;;;;;17.30;62.90;;;;;;4964854;28;19921;-79
2022/05/14 08:46:44;;;;;;;;;;;17.20;63.30;;;;;;4966594;28;19989;-78
2022/05/14 08:49:15;;;;;;;;;;;17.20;62.90;;;;;;4961128;28;19948;-79
2022/05/14 08:51:43;;;;;;;;;;;17.30;63.30;;;;;;4970057;28;19973;-79
2022/05/14 08:54:08;;;;;;;;;;;17.30;62.70;;;;;;4966163;28;19926;-79
2022/05/14 08:56:41;;;;;;;;;;;17.30;62.90;;;;;;4964772;28;19930;-80
2022/05/14 08:59:13;;;;;;;;;;;17.30;62.20;;;;;;4958174;28;19922;-79
2022/05/14 09:01:40;;;;;;;;;;;17.30;62.90;;;;;;4963298;28;19925;-79
2022/05/14 09:04:08;;;;;;;;;;;17.50;63.30;;;;;;4955897;28;20187;-79
2022/05/14 09:06:35;;;;;;;;;;;17.60;63.00;;;;;;4937580;28;20845;-80
2022/05/14 09:09:01;;;;;;;;;;;17.80;61.30;;;;;;4938511;28;19927;-79
2022/05/14 09:11:28;;;;;;;;;;;17.90;61.10;;;;;;4939909;28;19918;-79
2022/05/14 09:13:55;;;;;;;;;;;18.00;60.90;;;;;;4953945;28;19931;-79
2022/05/14 09:16:23;;;;;;;;;;;18.10;60.90;;;;;;4946567;28;19923;-79
2022/05/14 09:18:49;;;;;;;;;;;18.20;60.60;;;;;;4962719;28;19929;-80
2022/05/14 09:21:38;;;;;;;;;;;18.20;61.00;;;;;;4963571;28;19914;-78
2022/05/14 09:24:14;;;;;;;;;;;18.20;60.20;;;;;;4944633;28;20434;-79
2022/05/14 09:26:41;;;;;;;;;;;18.30;60.80;;;;;;4946463;28;19982;-78
2022/05/14 09:29:24;;;;;;;;;;;18.40;60.10;;;;;;4944755;28;20159;-78
2022/05/14 09:31:53;;;;;;;;;;;18.40;59.90;;;;;;4943993;28;19918;-77
2022/05/14 09:34:19;;;;;;;;;;;18.50;59.40;;;;;;4938451;28;19970;-77
2022/05/14 09:36:48;;;;;;;;;;;18.60;59.70;;;;;;4945324;28;19914;-78
2022/05/14 09:39:15;;;;;;;;;;;18.50;58.20;;;;;;4959396;28;19949;-79
2022/05/14 09:41:42;;;;;;;;;;;18.50;59.40;;;;;;4953636;28;19922;-86
2022/05/14 09:44:28;;;;;;;;;;;18.50;58.00;;;;;;4952168;28;19922;-80
2022/05/14 09:47:05;;;;;;;;;;;18.50;58.40;;;;;;4954424;28;20111;-79
2022/05/14 09:49:31;;;;;;;;;;;18.70;57.80;;;;;;4952430;28;19918;-80
2022/05/14 09:52:08;;;;;;;;;;;18.60;57.20;;;;;;4969445;28;20005;-78
2022/05/14 09:54:34;;;;;;;;;;;18.70;57.40;;;;;;4950031;28;19930;-78
2022/05/14 09:57:08;;;;;;;;;;;18.60;58.20;;;;;;4952174;28;19919;-79
2022/05/14 09:59:41;;;;;;;;;;;18.80;57.10;;;;;;4956763;28;19918;-78
2022/05/14 10:02:14;;;;;;;;;;;18.90;55.40;;;;;;4956159;28;20273;-78
2022/05/14 10:04:40;;;;;;;;;;;19.00;54.90;;;;;;4971458;28;20029;-79
2022/05/14 10:07:18;;;;;;;;;;;18.90;56.40;;;;;;4955181;28;20073;-79
2022/05/14 10:09:44;;;;;;;;;;;18.90;56.30;;;;;;4955361;28;19919;-82
2022/05/14 10:12:28;;;;;;;;;;;19.10;55.40;;;;;;4961618;28;19961;-79
2022/05/14 10:15:12;;;;;;;;;;;19.10;54.60;;;;;;4959882;28;19947;-78
2022/05/14 10:17:52;;;;;;;;;;;19.20;54.50;;;;;;4976881;28;19915;-80
2022/05/14 10:20:38;;;;;;;;;;;19.40;55.40;;;;;;4955471;28;19993;-80
2022/05/14 10:29:18;;;;;;;;;;;20.10;52.30;;;;;;4960027;28;19934;-79
2022/05/14 10:31:56;;;;;;;;;;;20.10;52.30;;;;;;4962594;28;19922;-79
2022/05/14 10:34:33;;;;;;;;;;;20.20;51.90;;;;;;4964786;28;19922;-79
2022/05/14 10:37:01;;;;;;;;;;;20.20;51.70;;;;;;4971469;28;19978;-79
2022/05/14 10:39:30;;;;;;;;;;;20.10;51.90;;;;;;4959887;28;19977;-79
2022/05/14 10:41:59;;;;;;;;;;;20.00;52.90;;;;;;4959506;28;19914;-79
2022/05/14 10:44:33;;;;;;;;;;;19.80;52.70;;;;;;4958054;28;20368;-79
2022/05/14 10:47:00;;;;;;;;;;;19.90;52.80;;;;;;4973291;28;19921;-79
2022/05/14 10:49:35;;;;;;;;;;;19.80;51.90;;;;;;4960636;28;19945;-80
2022/05/14 10:52:01;;;;;;;;;;;19.80;53.30;;;;;;4960099;28;20400;-80
2022/05/14 10:54:27;;;;;;;;;;;19.90;51.80;;;;;;4961177;28;19981;-79
2022/05/14 10:57:21;;;;;;;;;;;20.00;52.60;;;;;;4962455;28;19921;-79
2022/05/14 10:59:53;;;;;;;;;;;20.30;51.40;;;;;;4970440;28;20557;-79
2022/05/14 11:02:26;;;;;;;;;;;20.50;50.60;;;;;;4959503;28;19915;-80
2022/05/14 11:04:52;;;;;;;;;;;20.70;50.90;;;;;;4975270;28;19919;-80
2022/05/14 11:07:29;;;;;;;;;;;20.40;49.90;;;;;;4968359;28;20968;-79
2022/05/14 11:10:06;;;;;;;;;;;20.30;49.40;;;;;;4951480;28;19919;-79
2022/05/14 11:12:33;;;;;;;;;;;20.30;50.60;;;;;;4950202;28;20270;-79
2022/05/14 11:14:59;;;;;;;;;;;20.60;51.00;;;;;;4963833;28;19915;-79
2022/05/14 11:17:24;;;;;;;;;;;20.80;51.30;;;;;;4951950;28;19915;-80
2022/05/14 11:19:51;;;;;;;;;;;21.00;50.10;;;;;;4947472;28;19915;-79
2022/05/14 11:22:18;;;;;;;;;;;21.00;49.90;;;;;;4969564;28;20096;-79
2022/05/14 11:24:44;;;;;;;;;;;20.90;50.20;;;;;;4948016;28;19915;-79
2022/05/14 11:27:09;;;;;;;;;;;20.60;51.20;;;;;;4972381;28;20172;-80
2022/05/14 11:29:49;;;;;;;;;;;20.50;51.50;;;;;;4962294;28;20048;-79
2022/05/14 11:32:17;;;;;;;;;;;20.50;51.40;;;;;;4944561;28;20160;-79
2022/05/14 11:34:58;;;;;;;;;;;20.60;50.80;;;;;;4944503;28;19915;-79
2022/05/14 11:37:45;;;;;;;;;;;20.50;50.50;;;;;;4951947;28;19915;-79
2022/05/14 11:40:13;;;;;;;;;;;20.60;50.30;;;;;;4943101;28;19926;-81
2022/05/14 11:42:39;;;;;;;;;;;20.80;51.30;;;;;;4945523;29;19922;-78
2022/05/14 11:45:11;;;;;;;;;;;21.00;48.80;;;;;;4945531;28;19915;-78
2022/05/14 11:47:55;;;;;;;;;;;20.90;49.20;;;;;;4944953;28;20303;-79
2022/05/14 11:50:25;;;;;;;;;;;20.90;49.00;;;;;;4940381;28;19933;-79
2022/05/14 11:52:58;;;;;;;;;;;21.10;48.40;;;;;;4936660;28;19914;-80
2022/05/14 11:55:27;;;;;;;;;;;21.20;47.40;;;;;;4941359;28;20350;-79
2022/05/14 11:58:01;;;;;;;;;;;21.20;48.50;;;;;;4943251;28;19919;-81
2022/05/14 12:00:32;;;;;;;;;;;21.10;47.80;;;;;;4957735;28;19926;-78
2022/05/14 12:03:03;;;;;;;;;;;21.10;48.10;;;;;;4901943;28;1765963;-79
2022/05/14 12:05:31;;;;;;;;;;;21.30;47.60;;;;;;4965529;28;20284;-81
2022/05/14 12:07:56;;;;;;;;;;;21.50;47.10;;;;;;4965323;28;20310;-78
2022/05/14 12:10:21;;;;;;;;;;;21.40;47.10;;;;;;4968697;28;19950;-78
2022/05/14 12:12:48;;;;;;;;;;;21.30;47.10;;;;;;4967206;28;20520;-79
2022/05/14 12:15:15;;;;;;;;;;;21.30;46.60;;;;;;4967736;28;19984;-80
2022/05/14 12:17:48;;;;;;;;;;;21.40;47.90;;;;;;4966670;28;20165;-80
2022/05/14 12:20:18;;;;;;;;;;;21.50;46.80;;;;;;4973113;28;20068;-79
2022/05/14 12:22:50;;;;;;;;;;;21.80;46.20;;;;;;4966972;28;20374;-79
2022/05/14 12:25:16;;;;;;;;;;;22.00;46.30;;;;;;4970417;28;20379;-78
2022/05/14 12:27:46;;;;;;;;;;;22.10;45.70;;;;;;4966496;28;19948;-84
2022/05/14 12:30:11;;;;;;;;;;;21.70;45.10;;;;;;4962785;28;19965;-84
2022/05/14 12:35:28;;;;;;;;;;;21.70;46.70;;;;;;4964961;28;20112;-83
2022/05/14 12:37:55;;;;;;;;;;;21.80;47.40;;;;;;4965627;28;19914;-82
2022/05/14 12:40:23;;;;;;;;;;;21.80;46.70;;;;;;4958709;28;20825;-83
2022/05/14 12:42:50;;;;;;;;;;;21.80;46.20;;;;;;4963804;28;19928;-85
2022/05/14 12:45:15;;;;;;;;;;;22.00;46.80;;;;;;4970189;28;19922;-80
2022/05/14 12:47:41;;;;;;;;;;;22.10;45.90;;;;;;4971124;28;19932;-81
2022/05/14 12:50:16;;;;;;;;;;;22.00;46.50;;;;;;4973087;28;19946;-80
2022/05/14 12:52:51;;;;;;;;;;;21.80;45.40;;;;;;4969420;28;20287;-81
2022/05/14 12:55:16;;;;;;;;;;;21.50;46.20;;;;;;4967542;28;20062;-80
2022/05/14 12:57:43;;;;;;;;;;;21.20;47.20;;;;;;4968569;28;19968;-80
2022/05/14 13:00:09;;;;;;;;;;;21.10;46.30;;;;;;4958465;28;19914;-80
2022/05/14 13:02:47;;;;;;;;;;;20.90;46.20;;;;;;4975205;28;20271;-81
2022/05/14 13:05:16;;;;;;;;;;;21.00;46.90;;;;;;4971005;28;19925;-82
2022/05/14 13:07:52;;;;;;;;;;;21.00;46.30;;;;;;4971389;28;19914;-82
2022/05/14 13:10:22;;;;;;;;;;;21.10;47.00;;;;;;4967115;28;20024;-82
2022/05/14 13:12:50;;;;;;;;;;;21.20;47.40;;;;;;4967457;28;20437;-82
2022/05/14 13:15:15;;;;;;;;;;;21.10;47.50;;;;;;4989861;28;20379;-79
2022/05/14 13:17:41;;;;;;;;;;;21.10;47.50;;;;;;4975299;28;19921;-81
2022/05/14 13:20:15;;;;;;;;;;;21.20;46.60;;;;;;4967486;28;19922;-81
2022/05/14 13:22:42;;;;;;;;;;;21.20;46.90;;;;;;4972241;28;19914;-79
2022/05/14 13:25:24;;;;;;;;;;;21.30;47.00;;;;;;4970508;28;20306;-79
2022/05/14 13:27:50;;;;;;;;;;;21.30;47.00;;;;;;4964419;28;19949;-80
2022/05/14 13:30:18;;;;;;;;;;;21.40;46.50;;;;;;4968208;28;19921;-81
2022/05/14 13:32:43;;;;;;;;;;;21.50;45.00;;;;;;4965218;28;19996;-80
2022/05/14 13:37:55;;;;;;;;;;;21.60;44.90;;;;;;4968209;28;19988;-82
2022/05/14 13:40:31;;;;;;;;;;;21.70;45.00;;;;;;4961145;28;19926;-80
2022/05/14 13:42:58;;;;;;;;;;;21.90;43.70;;;;;;4961786;28;19930;-84
2022/05/14 13:45:29;;;;;;;;;;;22.00;43.70;;;;;;4956394;28;20001;-82
2022/05/14 13:47:59;;;;;;;;;;;22.10;42.50;;;;;;4959269;28;19985;-81
2022/05/14 13:50:33;;;;;;;;;;;22.10;41.40;;;;;;4966731;28;19926;-80
2022/05/14 13:52:59;;;;;;;;;;;22.10;42.00;;;;;;4958938;28;19915;-80
2022/05/14 13:55:27;;;;;;;;;;;22.10;42.10;;;;;;4959388;28;19918;-83
2022/05/14 13:57:58;;;;;;;;;;;22.00;42.20;;;;;;4962491;28;19946;-82
2022/05/14 14:00:24;;;;;;;;;;;22.00;43.40;;;;;;4961190;28;20403;-80
2022/05/14 14:03:01;;;;;;;;;;;21.90;43.10;;;;;;4963351;28;20072;-79
2022/05/14 14:05:27;;;;;;;;;;;21.90;43.80;;;;;;5002430;23;20332;-84
2022/05/14 14:07:53;;;;;;;;;;;22.00;44.50;;;;;;4975703;28;20070;-85
2022/05/14 14:10:21;;;;;;;;;;;22.00;43.60;;;;;;4977438;28;20353;-85
2022/05/14 14:12:47;;;;;;;;;;;22.00;43.40;;;;;;4978797;28;19918;-87
2022/05/14 14:15:16;;;;;;;;;;;21.90;43.60;;;;;;4975138;28;19958;-85
2022/05/14 14:17:42;;;;;;;;;;;21.90;44.80;;;;;;4973326;28;19921;-85
2022/05/14 14:20:08;;;;;;;;;;;21.80;44.40;;;;;;4977134;28;19931;-86
2022/05/14 14:22:34;;;;;;;;;;;21.80;44.60;;;;;;4970205;28;21163;-86
2022/05/14 14:25:00;;;;;;;;;;;22.00;44.80;;;;;;4964076;28;20017;-83
2022/05/14 14:27:26;;;;;;;;;;;22.00;44.60;;;;;;4955030;28;20334;-83
2022/05/14 14:29:53;;;;;;;;;;;21.80;45.00;;;;;;4966727;28;19949;-83
2022/05/14 14:32:19;;;;;;;;;;;21.60;45.30;;;;;;4974035;28;19961;-84
2022/05/14 14:34:44;;;;;;;;;;;21.60;44.80;;;;;;4965832;28;19974;-89
2022/05/14 14:37:10;;;;;;;;;;;21.60;45.20;;;;;;4972515;28;20207;-83
2022/05/14 14:39:35;;;;;;;;;;;21.60;46.10;;;;;;4968696;28;19918;-80
2022/05/14 14:42:01;;;;;;;;;;;21.90;44.80;;;;;;4965173;28;19974;-88
2022/05/14 14:44:27;;;;;;;;;;;22.00;46.40;;;;;;4966594;28;20167;-86
2022/05/14 14:46:53;;;;;;;;;;;22.00;44.90;;;;;;4967810;28;20511;-87